Timeline UpdatesTrip UpdatesNews PostsPvt PostsTravel TipsAdmin PostsConv PostsFollowed PostsChat RequestsBlog PostsPNR Posts

Disclaimer
Search
 
 
Fri Apr 18, 2014 00:46:24 ISTHomeTrainsΣChainsAtlasPNRForumGalleryNewsFAQTripsMembersLoginFeedback
No Recent News for this Train
Other Trains in the News **new
Latest...
Partially cancelled between Delhi and Mughalsarai from 14/4/14-18/5/14 #960478
Wed Feb 26, 2014 (08:39PM)
⇐ Return Journey: Train# 13039

13040/Delhi-Howrah Janta Express (UnReserved)

Sep 15 2013 (12:35PM)
Change Departure Station:
Change Arrival Station:
Post a Train Travel TipPost a Train Travel Tip **new
Post a Comment/Question/Picture/VideoPost a Comment/Question/Picture/Video
Inaugural Run
Tue Oct 01, 1946
Pantry/Catering
✕ NO Pantry Car
✕ NO Catering
RSA - Rake Sharing
Rake/Coach Composition
All coaches having Unreserved.
Loco
HWH WAP-4
News    PNR    Forum    Time-Table    Availability    Fare Chart    Map    Arr/Dep History    Trips    Gallery    ΣChains    X/O    Timeline    
Travel Time: 38h 35m    116 halts    Distance: 1537 km    Avg Speed: 39 km/hr
Type: Mail/Express
Zone: ER/Eastern
Departs @ 15:30 (Avg 4h 22m late)
Platform# 10
SMTWTFS
Old Delhi Junction/DLI 
Arrives @ 06:05 +2 nights (Avg 4h 47m late)
Platform# 7
SMTWTFS
Kolkata Howrah Junction/HWH 

116 halts. 291 intermediate Stations between Old Delhi Junction and Kolkata Howrah Junction

Show ALL intermediate Stations  Show Old Time-Table

#CodeStation NameX/OArrivesAvgDepartsAvgHaltPFDay#KmSpeedElevZoneAddress
1DLI»Old Delhi Junction (16)»  -15:30+4:221010.025219mNRNear Chandni Chowk Metro Station, Delhi NCT
2DSAShahdara Junction (4)  15:45+4:3615:47+4:402m216.337212mNRCircular Rd, Delhi NCT
3GZBGhaziabad Junction (6)X  16:09+4:4416:11+4:502m2119.946217mNRGhaziabad, Uttar Pradesh
4MIUMaripat (2)X  16:24+4:5716:25+5:011m--129.958213mNCRNational Highway 91, Uttar Pradesh
5DERDadri (3)  16:32+5:0416:33+5:051m2136.769210mNCR203207, Uttar Pradesh
6AJRAjaibpur (2)XO  16:41+5:0316:42+5:111m--145.862207mNCRGreater Noida, Uttar Pradesh
7DKDEDankaur (3)O  16:50+5:1416:51+5:171m--154.190209mNCRShyam Nagar Mandi, Uttar Pradesh
8WAIRWair (2)  16:57+5:1616:58+5:201m1163.149203mNCRBulandshahr District, Uttar Pradesh
9CHLChola (3)X  17:04+5:2317:05+5:231m--168.089204mNCRTahsil Bulandshahar, Uttar Pradesh
10SKQSikandarpur (2)  17:11+5:0617:12+5:141m--176.949199mNCRMDR 70W, Uttar Pradesh
11KRJKhurja Junction (4)  17:19+5:0417:20+5:061m2182.648199mNCRBulandshahr, Uttar Pradesh
12DARDanwar (2)X  17:34+5:0717:35+5:131m--193.768198mNCRDanwar, Uttar Pradesh
13SOMSomna (2)O  17:44+5:1617:45+5:191m--1104.068195mNCRNational Highway 91, Uttar Pradesh
14KLAKulwa (2)X  17:54+5:2017:55+5:201m--1114.151190mNCRAligarh, Uttar Pradesh
15ALJNAligarh Junction (4)  18:09+5:0618:10+4:551m21126.149192mNCRAligarh, Uttar Pradesh
16MXKMandrak (2)XO  18:27+5:1218:28+5:191m--1139.988190mNCRNational Highway 93, Uttar Pradesh
17SNSSasni (3)  18:33+5:2318:34+5:281m--1147.349185mNCRSasni, Uttar Pradesh
18HRSHathras Junction (3)XO  18:45+5:2618:50+5:315m11156.271183mNCRMahamaya Nagar(05722-242803), Uttar Pradesh
19JLSJalesar Road (1)  19:07+5:2019:08+5:231m11176.366172mNCRMDR 106W, Uttar Pradesh
20BRNBarhan Junction  19:20+5:1519:21+5:181m--1189.57173mNCRJN Point-Tundle/Aligarh/Etah, Uttar Pradesh
21TDLTundla Junction (4)  21:33+5:2421:43+5:2710m31204.266167mNCRDistt.Firozabad, Uttar Pradesh
22FZDFirozabad (4)XO  21:58+5:3121:59+5:291m21220.721164mNCRFirozabad, Uttar Pradesh
23SKBShikohabad Junction (4)X  22:55+5:2023:00+5:175m21240.658166mNCRDistrict Firozabad, Uttar Pradesh
24JGRJaswantnagar (2)  23:41+5:1723:42+5:201m--1280.025154mNCRJaswantnagar, Uttar Pradesh
25ETWEtawah (5)X  00:20+5:0000:25+5:025m32296.085154mNCRDistt. Etawah, Uttar Pradesh
26BNTBharthana (3)X  00:39+5:0400:40+5:071m--2315.969147mNCRBharthana, Uttar Pradesh
27ULDAchalda (3)X  00:57+5:0700:58+5:101m--2335.463147mNCRDist. Auraiya(05688-1072), Uttar Pradesh
28PHDPhaphund (4)XO  01:14+5:1001:15+5:131m--2352.229146mNCRdist. Auraiya, Uttar Pradesh
29JJKJhinjhak (3)X  01:56+4:5301:57+4:541m22372.052140mNCRAuraiya, Uttar Pradesh
30RURARura (4)X  02:19+4:5102:20+4:531m--2391.033137mNCRJhinjhak, Uttar Pradesh
31CNBKanpur Central (10)X  03:40+4:5503:50+4:5810m42435.460128mNCRKanpur, Uttar Pradesh
32BKOBindki RoadX  04:36+5:0104:38+5:042m--2481.770124mNCRFatehpur, Uttar Pradesh
33FTPFatehpur (3)X  05:05+5:0705:10+5:035m--2513.083120mNCRFatehpur, Uttar Pradesh
34KGAKhaga (3)X  05:35+5:0405:40+5:065m--2547.774114mNCRFatehpur, Uttar Pradesh
35SROSirathu (2)X  06:00+5:0906:05+5:105m12572.574109mNCRSirathu, Uttar Pradesh
36SJTShujaatpur  06:13+5:1606:18+5:135m--2582.377107mNCRNational Highway 2, Uttar Pradesh
37BREBharwari  06:26+5:1906:28+5:152m--2592.657108mNCRBharwari, Uttar Pradesh
38SYWNSaiyid SarawanX  06:44+5:1506:45+5:191m--2607.916106mNCR212203 ?, Uttar Pradesh
39MREManauri  07:02+5:1207:03+5:101m--2612.558105mNCRSabderganj-Fatehpur Rd, Uttar Pradesh
40SFGSubedarGanj (3)XO  07:17+5:1107:18+5:081m--2625.97100mNCRAllahabad, Uttar Pradesh
41ALDAllahabad Junction (10)X  07:50+5:1008:00+5:0510m62629.747100mNCRAllahabad 211003, Uttar Pradesh
42NYNNaini Junction (4)  08:09+4:5108:11+4:542m12636.84998mNCRAllahabad, Uttar Pradesh
43KCNKarchanaX  08:24+4:5708:25+4:581m--2647.47294mNCRKarchana, Uttar Pradesh
44MJAMeja Road (4)X  08:42+5:0508:43+5:111m--2667.83294mNCRDistrict Allahabad, Uttar Pradesh
45UNDUnchdih  08:58+5:1108:59+5:141m--2676.04494mNCRUnchdih, Uttar Pradesh
46MNFManda Road  09:10+5:0909:15+5:135m--2684.05693mNCRNH 76, Uttar Pradesh
47JIAJigna (1)X  09:24+5:1709:25+5:221m12692.45994mNCRNational Highway 76, Uttar Pradesh
48GAEGaipura (4)XO  09:32+5:2409:33+5:251m--2699.26286mNCRGaipura, Uttar Pradesh
49BDLVindhyachal (3)X  09:45+5:2409:46+5:231m--2711.51988mNCRMirzapur, Uttar Pradesh
50MZPMirzapur (3)X  10:09+5:1710:10+5:211m--2718.94788mNCRMirzapur, Uttar Pradesh
51CARChunar Junction (5)XO  10:50+5:2310:55+5:135m22750.25785mNCRChunar Junction, Uttar Pradesh
52KYTKailahatO  11:05+5:1511:06+5:161m--2759.63284mNCRKailahat, Uttar Pradesh
53ARWAhraura RoadO  11:22+5:1311:23+5:141m--2768.12285mNCRDist. Mirzapur, Uttar Pradesh
54MGSMughal Sarai Junction (8)X  12:00+4:5612:15+4:5515m22781.95083mECRMughalsarai 232101, Uttar Pradesh
55SLDSakaldiha (2)  12:37+4:4512:38+4:471m--2800.18281mECRState Highway 69, Uttar Pradesh
56ZNAZamaniaX  12:57+4:5012:58+4:521m--2826.15877mECRGhazipur, Uttar Pradesh
57DLNDildarnagar Junction (2)  13:12+4:5113:14+4:522m--2839.67972mECRDildarnagar, Uttar Pradesh
58BWHBhadaura  13:20+4:5313:21+4:541m--2847.55469mECRGhazipur, Uttar Pradesh
59GMRGahmar (2)  13:30+4:5313:31+4:581m--2855.66968mECRDistt: Ghazipur, Uttar Pradesh
60CSAChausa (2)X  13:39+4:5913:40+5:041m--2864.96668mECRState Highway 14, Bihar
61BXRBuxar (3)X  13:50+5:0413:55+5:035m--2875.88267mECRBuxar, Bihar
62DUREDumraon (3)  14:07+5:0414:08+5:051m--2892.15170mECRDumraon, Bihar
63TWGTwining Ganj  14:17+5:0414:18+5:061m--2899.77270mECRArrah Buxar Rd, Bihar
64RPRRaghunathpurX  14:25+5:0714:26+5:101m--2908.15969mECRRaghunathpur, Bihar
65BYNBanahiX  14:35+5:0914:36+5:091m--2917.04467mECRBanahi, Bihar
66BEABihiya  14:44+5:0814:45+5:101m--2922.96367mECRBehea, Bihar
67KRSKarisath (2)XO  14:56+5:1014:57+5:011m--2934.42065mECRKarisath, Bihar
68ARAAra Junction (3)  15:27+4:4815:29+4:482m--2944.39963mECRarrah( 06182-233411), Bihar
69KUAKulharia (2)X  15:35+4:5315:36+4:331m--2954.23661mECRChandi Sahar Rd, Bihar
70KWRKoelwar (2)  15:42+4:4515:43+4:451m--2957.83765mECRNational Highway 30, Bihar
71VHCHChakki Block CabinX  15:47+4:4515:48+4:441m--2960.26363mECRNational Highway 30, Bihar
72BTABihta (2)  15:54+4:4515:55+4:471m--2966.53662mECRBihta, Bihar
73SDESadisopur (2)  16:02+4:4716:03+4:471m--2970.75364mECRSadisopur, Bihar
74NEONeora (2)X  16:11+4:4716:12+4:501m--2977.82061mECRNational Highway 98, Bihar
75DNRDanapur (5)XO  16:30+4:4616:40+4:5010m--2983.81958mECRKhagaul, Bihar
76PNBEPatna Junction (10)X  17:10+4:3717:20+4:5010m--2993.22257mECRPatna 800001, Bihar
77RJPBRajendra Nagar Bihar (4)X  17:27+4:3117:29+4:412m--2995.85155mECRPatna 800001, Bihar
78GZHGulzarbagh (3)  17:34+4:3217:36+4:412m--21000.12655mECRPatna, Bihar
79PNCPatna Saheb (3)  17:43+4:3117:45+4:432m--21003.14659mECRPatna, Bihar
80BKGBanka Ghat (2)  17:53+4:3317:54+4:441m--21009.36156mECRPatna, Bihar
81FUTFatwa (6)X  18:00+4:3518:01+4:291m--21015.35653mECRPatna, Bihar
82KOOKhusropur (2)  18:10+4:2818:11+4:291m--21023.87152mECRPatna, Bihar
83KWOKarauta (2)X  18:18+4:3018:19+4:201m--21032.01554mECRKarauta, Bihar
84BKPBakhtiyarpur Junction (5)18:45+4:1319:05+4:2520m--21038.47851mECRPatna, Bihar
85ATLAthmal Gola (2)  19:12+4:2519:13+4:251m--21047.46952mECRPatna, Bihar
86BARHBarh (3)O  19:21+4:2619:22+4:321m--21056.66949mECRBarh, Bihar
87PHKPunarakh  19:31+4:3219:33+4:312m--21067.03251mECRPunarakh, Bihar
88MMKBMemrakhabadXO  19:38+4:3119:39+4:311m--21069.73449mECRMor, Bihar
89KNHPKanhaipurO  19:43+4:2919:44+4:291m--21071.94047mECRMor, Bihar
90MORMor  19:49+4:2919:50+4:301m--21075.34846mECRMor, Bihar
91MKAMokama Junction (3)O  19:59+4:3020:01+4:302m--21082.55348mECRPatna, Bihar
92TALLTall Junction  20:06+4:3120:07+4:321m--21086.94844mECRTal, Bihar
93HTZHathidah Junction (2)X  20:12+4:3220:13+4:421m121090.91850mECRMusahari, Bihar
94RDUMRampur DumraX  20:26+4:2920:27+4:421m--21094.73346mECRNational Highway 80, Bihar
95BRYABarhiya  20:37+4:3120:38+4:411m--21100.25147mECRBarahiya, Bihar
96DMRXDumri Halt (1)  20:43+4:4120:44+4:511m121104.53949mECRNational Highway 80, Bihar
97MKBMankatha  20:52+4:4120:53+4:441m--21109.85647mECRNational Highway 80, Bihar
98LKRLuckeesarai Junction (2)  20:59+4:4521:00+4:461m--21115.3852mECRLakhisarai, Bihar
99KIULKiul Junction (5)  21:10+4:4421:12+4:342m--21116.73353mECRDist. Lakhisarai, Bihar
100BSQPBansipur  21:20+4:4621:21+4:461m--21121.12253mECRKiul, Bihar
101MNPMananpur (2)O  21:28+4:4521:29+4:351m--21123.62657mECRState Highway 18, Bihar
102BFMBhaluiX  21:35+4:4621:36+4:461m--21126.213356mECRState Highway 18, Bihar
103JMUJamui (3)X  21:44+4:4621:45+4:471m--21144.04681mECRState Highway 72, Bihar
104GHRGidhaur (2)X  22:04+4:5222:05+4:541m--21158.634106mECRState Highway 18, Bihar
105JAJJhajha (4)  22:25+4:5922:33+4:138m--21170.062143mECRJhajha, Bihar
106STLSimultala (2)X  22:51+3:5922:54+3:583m--21188.776247mERSimultala, Bihar
107JSMEJasidih Junction (5)X  23:14+3:5923:19+4:005m--21214.170271mERJasidih, Jharkhand
108MDPMadhupur Junction (4)X  23:44+4:0323:52+4:238m--21243.287254mER06432-224478, Jharkhand
109CRJChittaranjan (3)  00:31+4:0200:33+4:022m231299.643182mERMihijam, Jharkhand
110ASNAsansol Junction (7)XO  01:08+4:0101:18+4:0110m--31324.764113mERDist - bardhaman, West Bengal
111RNGRaniGanj (4)X  01:35+3:5601:39+3:544m--31342.84992mERRaniganj, West Bengal
112UDLAndal Junction (6)  01:48+4:1601:50+4:162m--31350.17386mERAndal, West Bengal
113DGRDurgapur (5)X  02:04+4:2302:08+4:224m--31367.15571mERDurgapur, West Bengal
114BWNBarddhaman Junction (8)  03:17+4:1503:27+4:3310m--31430.65434mERDist - Barddhaman, West Bengal
115BDCBandel Junction (7)O  04:42+4:3304:47+4:405m--31497.94514mERdist - HOOGHLY, West Bengal
116CGRChandan Nagar (3)  04:56+4:2805:01+4:365m--31504.76116mERDist -HOOGHLY - 712136, West Bengal
117SRPSerampore (4)  05:14+4:2405:19+4:325m--31517.82611mERdist - hooghly, West Bengal
118HWH•Kolkata Howrah Junction (23)•  06:05+4:47-731537.5-10mERHowrah 711101, West Bengal
Scroll to Top
Scroll to Bottom